Thursday, November 23, 2017, 7:23 PM EST
Back to Local

KNHK, Nas Patuxent River Md

Location: Patuxent River, MD, United States Lat: 38.3
Local Time: 7:23 PM EST ( 0:23 GMT) Lon: -76.4
Time Zone: US/Eastern Elev: 39 ft

Show me the last for .
Show Decoded

2017-11-23 18:52 METAR KNHK 232352Z AUTO 23003KT 10SM CLR 00/M04 A3007 RMK AO2 SLP184 T00001039
                 10067 20000 56002 VISNO RY24 $ =
2017-11-23 17:52 METAR KNHK 232252Z AUTO 00000KT 10SM CLR 01/M03 A3008 RMK AO2 SLP185 T00111028
                 VISNO RY24 $ =
2017-11-23 16:52 METAR KNHK 232152Z AUTO 09005KT 10SM CLR 04/M03 A3007 RMK AO2 SLP183 T00441028
                 VISNO RY24 $ =
2017-11-23 15:52 METAR KNHK 232052Z AUTO 10003KT 10SM CLR 06/M03 A3008 RMK AO2 SLP186 T00561033
                 56014 VISNO RY24 $ =
2017-11-23 14:52 METAR KNHK 231952Z AUTO 00000KT 10SM CLR 06/M04 A3009 RMK AO2 SLP188 T00611044
                 VISNO RY24 $ =
2017-11-23 13:52 METAR KNHK 231852Z AUTO 00000KT 10SM CLR 06/M05 A3009 RMK AO2 SLP190 T00561050
                 VISNO RY24 $ =
2017-11-23 12:52 METAR KNHK 231752Z AUTO VRB04KT 10SM CLR 06/M04 A3012 RMK AO2 SLP199 T00561044
                 10056 20017 58024 $ =
2017-11-23 11:52 METAR KNHK 231652Z AUTO 33006KT 10SM CLR 04/M05 A3014 RMK AO2 SLP207 T00441050 $
                 =
2017-11-23 10:52 METAR KNHK 231552Z AUTO 32007KT 10SM CLR 04/M05 A3017 RMK AO2 SLP216 T00391050 $
                 =
2017-11-23 09:52 METAR KNHK 231452Z AUTO 33011KT 10SM CLR 04/M05 A3019 RMK AO2 SLP223 T00391050
                 50006 $ =
2017-11-23 08:52 METAR KNHK 231352Z AUTO 33012KT 10SM CLR 04/M04 A3020 RMK AO2 SLP226 T00391044 $
                 =
2017-11-23 07:52 METAR KNHK 231252Z AUTO 33011KT 10SM CLR 02/M04 A3020 RMK AO2 SLP227 T00221039 $
                 =
2017-11-23 06:52 METAR KNHK 231152Z AUTO 33011KT 10SM CLR 02/M04 A3017 RMK AO2 SLP218 T00171039
                 10033 20006 53003 $ =
2017-11-23 05:52 METAR KNHK 231052Z AUTO 33012KT 10SM CLR 02/M04 A3016 RMK AO2 SLP214 T00171044 $
                 =
2017-11-23 04:52 METAR KNHK 230952Z AUTO 34011KT 10SM CLR 02/M04 A3016 RMK AO2 SLP212 T00171039 $
                 =
2017-11-23 03:52 METAR KNHK 230852Z AUTO 29007KT 260V330 10SM CLR 01/M03 A3017 RMK AO2 SLP215
                 T00111033 55000 $ =
2017-11-23 02:52 METAR KNHK 230752Z AUTO 34008KT 10SM CLR 03/M04 A3017 RMK AO2 SLP215 T00281039 $
                 =
2017-11-23 01:52 METAR KNHK 230652Z AUTO 34011KT 10SM CLR 03/M03 A3016 RMK AO2 SLP213 T00281033 $
                 =
2017-11-22 23:52 METAR KNHK 230452Z AUTO 34014KT 10SM CLR 04/M02 A3017 RMK AO2 SLP216 T00391017
                 401500039 $ =
2017-11-22 22:52 METAR KNHK 230352Z 33016G26KT 10SM FEW250 05/M03 A3018 RMK AO2 PK WND 33026/0346
                 SLP218 T00501028 $ =
2017-11-22 21:52 METAR KNHK 230252Z 33017KT 10SM FEW250 06/M02 A3016 RMK SLP212 T00561022 51020 =
2017-11-22 20:52 METAR KNHK 230152Z 32020G24KT 10SM FEW250 06/M02 A3015 RMK AO2 SLP209 T00611017
                 $ =
2017-11-22 19:52 METAR KNHK 230052Z 33019G26KT 10SM FEW055 FEW250 07/M01 A3011 RMK AO2 PK WND
                 34027/0035 SLP198 T00671011 $ =

Support USWX by starting your Amazon purchase here.